ジッダ の空港の天気 - METARとTAF

キング・アブドゥルアズィーズ国際空港(ジッダ) ( OEJN / JED ) - サウジアラビア ジッダ
飛行場実況気象(Metar)
観測時間02/05 22:00 AST (02/05 19:00 UTC)
風向・風速静穏 0m/s
視程10km以上
天気現象
なし
気温24℃
湿度57%
気圧1012hPa
METAROEJN 051900Z 00000KT CAVOK 24/15 Q1012 NOSIG
過去の天気等 Google飛行場航空写真 Wunderground天気予報

過去48時間のMETAR

飛行場予報(TAF)
発表時間: 2/05 20:00 AST (2/05 17:00 UTC)
予報対象時間: 5日21時 AST ~ 7日3時 AST
風向・風速北北東 3m/s
視程10km以上
なし
6日9時 AST ~ 6日11時 AST に徐々に
風向・風速西南西 3m/s
6日17時 AST ~ 6日19時 AST に徐々に
風向・風速北北東 3m/s
視程10km以上
少しの雲 雲底高度 1220m
全天の4割程度の雲 雲底高度 2440m
TAF OEJN 051700Z 0518/0624 02005KT CAVOK
BECMG 0606/0608 25005KT
BECMG 0614/0616 02005KT 9999 FEW040 SCT080